Terminal Aerodrome Forecast
Issued by NWS Salt Lake City, UT

Home | Current Version | Previous Version | Text Only | Print | Product List | Glossary On
Versions: 1 2 3 4 5 6 7 8 9 10 11 12 13
000
FTUS45 KSLC 052334
TAFCDC
TAF
KCDC 052334Z 0600/0624 20024G35KT P6SM FEW140 SCT200
     FM060100 20011G22KT P6SM SCT200
     FM060300 19007KT P6SM SCT200
     FM061700 20014G24KT P6SM SCT100 BKN200=

USA.gov is the U.S. government's official web portal to all federal, state and local government web resources and services.